sensor_id;sensor_type;location;lat;lon;timestamp;temperature;humidity
44063;DHT22;29727;47.606;19.130;2023-01-15T00:01:00;6.00;87.80
44063;DHT22;29727;47.606;19.130;2023-01-15T00:03:26;5.90;87.40
44063;DHT22;29727;47.606;19.130;2023-01-15T00:05:52;5.90;87.40
44063;DHT22;29727;47.606;19.130;2023-01-15T00:08:18;6.00;87.40
44063;DHT22;29727;47.606;19.130;2023-01-15T00:10:43;6.00;87.40
44063;DHT22;29727;47.606;19.130;2023-01-15T00:13:09;6.00;87.10
44063;DHT22;29727;47.606;19.130;2023-01-15T00:15:35;6.00;86.80
44063;DHT22;29727;47.606;19.130;2023-01-15T00:18:02;5.90;86.90
44063;DHT22;29727;47.606;19.130;2023-01-15T00:20:27;5.90;86.30
44063;DHT22;29727;47.606;19.130;2023-01-15T00:22:53;5.90;86.40
44063;DHT22;29727;47.606;19.130;2023-01-15T00:25:19;5.90;86.90
44063;DHT22;29727;47.606;19.130;2023-01-15T00:28:20;5.90;86.50
44063;DHT22;29727;47.606;19.130;2023-01-15T00:30:46;5.90;87.10
44063;DHT22;29727;47.606;19.130;2023-01-15T00:33:12;5.80;86.80
44063;DHT22;29727;47.606;19.130;2023-01-15T00:35:37;5.80;86.70
44063;DHT22;29727;47.606;19.130;2023-01-15T00:38:03;5.80;87.00
44063;DHT22;29727;47.606;19.130;2023-01-15T00:40:28;5.80;87.40
44063;DHT22;29727;47.606;19.130;2023-01-15T00:42:54;5.80;87.20
44063;DHT22;29727;47.606;19.130;2023-01-15T00:45:20;5.80;86.80
44063;DHT22;29727;47.606;19.130;2023-01-15T00:47:45;5.80;87.00
44063;DHT22;29727;47.606;19.130;2023-01-15T00:50:14;5.80;86.40
44063;DHT22;29727;47.606;19.130;2023-01-15T00:52:40;5.80;86.20
44063;DHT22;29727;47.606;19.130;2023-01-15T00:55:07;5.80;86.50
44063;DHT22;29727;47.606;19.130;2023-01-15T00:57:33;5.80;87.10
44063;DHT22;29727;47.606;19.130;2023-01-15T00:59:59;5.70;87.10
44063;DHT22;29727;47.606;19.130;2023-01-15T01:02:24;5.70;86.80
44063;DHT22;29727;47.606;19.130;2023-01-15T01:04:50;5.70;86.50
44063;DHT22;29727;47.606;19.130;2023-01-15T01:07:16;5.60;86.60
44063;DHT22;29727;47.606;19.130;2023-01-15T01:09:43;5.60;86.40
44063;DHT22;29727;47.606;19.130;2023-01-15T01:12:09;5.60;86.90
44063;DHT22;29727;47.606;19.130;2023-01-15T01:14:36;5.60;86.90
44063;DHT22;29727;47.606;19.130;2023-01-15T01:17:02;5.50;86.90
44063;DHT22;29727;47.606;19.130;2023-01-15T01:19:28;5.50;87.10
44063;DHT22;29727;47.606;19.130;2023-01-15T01:21:54;5.50;87.70
44063;DHT22;29727;47.606;19.130;2023-01-15T01:24:22;5.50;87.80
44063;DHT22;29727;47.606;19.130;2023-01-15T01:26:48;5.50;87.30
44063;DHT22;29727;47.606;19.130;2023-01-15T01:29:17;5.50;87.60
44063;DHT22;29727;47.606;19.130;2023-01-15T01:31:42;5.50;87.90
44063;DHT22;29727;47.606;19.130;2023-01-15T01:34:09;5.50;87.50
44063;DHT22;29727;47.606;19.130;2023-01-15T01:36:37;5.60;87.30
44063;DHT22;29727;47.606;19.130;2023-01-15T01:39:04;5.60;87.30
44063;DHT22;29727;47.606;19.130;2023-01-15T01:41:31;5.60;87.60
44063;DHT22;29727;47.606;19.130;2023-01-15T01:44:56;5.50;87.40
44063;DHT22;29727;47.606;19.130;2023-01-15T01:46:44;5.60;87.60
44063;DHT22;29727;47.606;19.130;2023-01-15T01:49:12;5.60;87.20
44063;DHT22;29727;47.606;19.130;2023-01-15T01:51:49;5.50;87.20
44063;DHT22;29727;47.606;19.130;2023-01-15T01:54:17;5.60;87.00
44063;DHT22;29727;47.606;19.130;2023-01-15T01:56:44;5.50;87.20
44063;DHT22;29727;47.606;19.130;2023-01-15T01:59:10;5.50;87.30
44063;DHT22;29727;47.606;19.130;2023-01-15T02:01:36;5.50;87.80
44063;DHT22;29727;47.606;19.130;2023-01-15T02:04:05;5.50;87.90
44063;DHT22;29727;47.606;19.130;2023-01-15T02:06:32;5.50;88.10
44063;DHT22;29727;47.606;19.130;2023-01-15T02:08:58;5.50;86.70
44063;DHT22;29727;47.606;19.130;2023-01-15T02:11:24;5.40;86.60
44063;DHT22;29727;47.606;19.130;2023-01-15T02:16:42;5.40;88.00
44063;DHT22;29727;47.606;19.130;2023-01-15T02:27:19;5.50;87.80
44063;DHT22;29727;47.606;19.130;2023-01-15T02:30:07;5.40;87.50
44063;DHT22;29727;47.606;19.130;2023-01-15T02:32:45;5.50;87.40
44063;DHT22;29727;47.606;19.130;2023-01-15T02:35:21;5.50;87.90
44063;DHT22;29727;47.606;19.130;2023-01-15T02:37:57;5.40;87.50
44063;DHT22;29727;47.606;19.130;2023-01-15T02:40:25;5.40;87.50
44063;DHT22;29727;47.606;19.130;2023-01-15T02:42:52;5.40;88.30
44063;DHT22;29727;47.606;19.130;2023-01-15T02:45:29;5.50;87.60
44063;DHT22;29727;47.606;19.130;2023-01-15T02:47:58;5.40;87.30
44063;DHT22;29727;47.606;19.130;2023-01-15T02:50:31;5.40;87.60
44063;DHT22;29727;47.606;19.130;2023-01-15T02:53:02;5.40;87.40
44063;DHT22;29727;47.606;19.130;2023-01-15T02:55:37;5.30;87.40
44063;DHT22;29727;47.606;19.130;2023-01-15T02:58:09;5.30;87.90
44063;DHT22;29727;47.606;19.130;2023-01-15T03:00:39;5.30;87.90
44063;DHT22;29727;47.606;19.130;2023-01-15T03:03:13;5.30;88.20
44063;DHT22;29727;47.606;19.130;2023-01-15T03:05:57;5.30;88.40
44063;DHT22;29727;47.606;19.130;2023-01-15T03:08:24;5.30;88.10
44063;DHT22;29727;47.606;19.130;2023-01-15T03:11:04;5.30;87.60
44063;DHT22;29727;47.606;19.130;2023-01-15T03:13:47;5.30;88.40
44063;DHT22;29727;47.606;19.130;2023-01-15T03:16:39;5.30;88.40
44063;DHT22;29727;47.606;19.130;2023-01-15T03:22:04;5.30;88.40
44063;DHT22;29727;47.606;19.130;2023-01-15T03:24:31;5.40;87.60
44063;DHT22;29727;47.606;19.130;2023-01-15T03:26:59;5.40;88.10
44063;DHT22;29727;47.606;19.130;2023-01-15T03:29:29;5.40;87.90
44063;DHT22;29727;47.606;19.130;2023-01-15T03:31:55;5.40;87.70
44063;DHT22;29727;47.606;19.130;2023-01-15T03:34:24;5.40;87.40
44063;DHT22;29727;47.606;19.130;2023-01-15T03:36:51;5.40;87.10
44063;DHT22;29727;47.606;19.130;2023-01-15T03:39:16;5.30;87.30
44063;DHT22;29727;47.606;19.130;2023-01-15T03:41:56;5.30;87.40
44063;DHT22;29727;47.606;19.130;2023-01-15T03:44:29;5.30;87.30
44063;DHT22;29727;47.606;19.130;2023-01-15T03:47:19;5.30;86.90
44063;DHT22;29727;47.606;19.130;2023-01-15T03:52:49;5.30;87.30
44063;DHT22;29727;47.606;19.130;2023-01-15T03:55:27;5.30;86.50
44063;DHT22;29727;47.606;19.130;2023-01-15T03:57:59;5.30;86.90
44063;DHT22;29727;47.606;19.130;2023-01-15T04:00:32;5.30;86.90
44063;DHT22;29727;47.606;19.130;2023-01-15T04:03:01;5.30;87.30
44063;DHT22;29727;47.606;19.130;2023-01-15T04:05:29;5.40;86.90
44063;DHT22;29727;47.606;19.130;2023-01-15T04:07:56;5.30;86.90
44063;DHT22;29727;47.606;19.130;2023-01-15T04:10:23;5.40;86.90
44063;DHT22;29727;47.606;19.130;2023-01-15T04:12:49;5.40;87.10
44063;DHT22;29727;47.606;19.130;2023-01-15T04:15:15;5.40;86.60
44063;DHT22;29727;47.606;19.130;2023-01-15T04:17:41;5.40;86.70
44063;DHT22;29727;47.606;19.130;2023-01-15T04:20:07;5.50;86.20
44063;DHT22;29727;47.606;19.130;2023-01-15T04:22:33;5.50;86.20
44063;DHT22;29727;47.606;19.130;2023-01-15T04:25:01;5.40;86.60
44063;DHT22;29727;47.606;19.130;2023-01-15T04:27:27;5.50;87.00
44063;DHT22;29727;47.606;19.130;2023-01-15T04:29:53;5.50;86.80
44063;DHT22;29727;47.606;19.130;2023-01-15T04:32:19;5.50;86.30
44063;DHT22;29727;47.606;19.130;2023-01-15T04:34:44;5.50;86.10
44063;DHT22;29727;47.606;19.130;2023-01-15T04:37:11;5.50;86.30
44063;DHT22;29727;47.606;19.130;2023-01-15T04:39:37;5.50;86.60
44063;DHT22;29727;47.606;19.130;2023-01-15T04:42:03;5.50;86.00
44063;DHT22;29727;47.606;19.130;2023-01-15T04:44:47;5.50;86.00
44063;DHT22;29727;47.606;19.130;2023-01-15T04:47:12;5.50;86.60
44063;DHT22;29727;47.606;19.130;2023-01-15T04:49:38;5.50;85.70
44063;DHT22;29727;47.606;19.130;2023-01-15T04:52:04;5.50;86.20
44063;DHT22;29727;47.606;19.130;2023-01-15T04:54:30;5.50;86.40
44063;DHT22;29727;47.606;19.130;2023-01-15T04:56:56;5.50;86.40
44063;DHT22;29727;47.606;19.130;2023-01-15T04:59:24;5.50;86.50
44063;DHT22;29727;47.606;19.130;2023-01-15T05:01:50;5.50;86.40
44063;DHT22;29727;47.606;19.130;2023-01-15T05:04:16;5.50;86.30
44063;DHT22;29727;47.606;19.130;2023-01-15T05:06:42;5.50;85.50
44063;DHT22;29727;47.606;19.130;2023-01-15T05:09:08;5.50;85.40
44063;DHT22;29727;47.606;19.130;2023-01-15T05:11:35;5.50;85.20
44063;DHT22;29727;47.606;19.130;2023-01-15T05:14:02;5.50;85.40
44063;DHT22;29727;47.606;19.130;2023-01-15T05:16:28;5.50;85.60
44063;DHT22;29727;47.606;19.130;2023-01-15T05:19:01;5.50;85.30
44063;DHT22;29727;47.606;19.130;2023-01-15T05:21:32;5.40;86.00
44063;DHT22;29727;47.606;19.130;2023-01-15T05:23:59;5.40;86.00
44063;DHT22;29727;47.606;19.130;2023-01-15T05:26:26;5.30;86.50
44063;DHT22;29727;47.606;19.130;2023-01-15T05:28:54;5.40;86.50
44063;DHT22;29727;47.606;19.130;2023-01-15T05:31:20;5.40;86.60
44063;DHT22;29727;47.606;19.130;2023-01-15T05:33:47;5.40;85.60
44063;DHT22;29727;47.606;19.130;2023-01-15T05:36:16;5.40;86.10
44063;DHT22;29727;47.606;19.130;2023-01-15T05:38:42;5.40;86.10
44063;DHT22;29727;47.606;19.130;2023-01-15T05:41:14;5.30;86.30
44063;DHT22;29727;47.606;19.130;2023-01-15T05:44:03;5.40;86.40
44063;DHT22;29727;47.606;19.130;2023-01-15T05:46:29;5.30;86.70
44063;DHT22;29727;47.606;19.130;2023-01-15T05:48:59;5.30;87.00
44063;DHT22;29727;47.606;19.130;2023-01-15T05:51:25;5.30;87.00
44063;DHT22;29727;47.606;19.130;2023-01-15T05:53:51;5.40;86.20
44063;DHT22;29727;47.606;19.130;2023-01-15T05:56:16;5.30;86.60
44063;DHT22;29727;47.606;19.130;2023-01-15T05:58:42;5.40;87.10
44063;DHT22;29727;47.606;19.130;2023-01-15T06:01:09;5.40;86.10
44063;DHT22;29727;47.606;19.130;2023-01-15T06:03:35;5.40;86.30
44063;DHT22;29727;47.606;19.130;2023-01-15T06:06:01;5.30;86.70
44063;DHT22;29727;47.606;19.130;2023-01-15T06:08:28;5.40;86.80
44063;DHT22;29727;47.606;19.130;2023-01-15T06:10:53;5.30;86.10
44063;DHT22;29727;47.606;19.130;2023-01-15T06:13:19;5.30;86.90
44063;DHT22;29727;47.606;19.130;2023-01-15T06:15:45;5.40;86.80
44063;DHT22;29727;47.606;19.130;2023-01-15T06:18:10;5.30;86.90
44063;DHT22;29727;47.606;19.130;2023-01-15T06:20:37;5.40;87.00
44063;DHT22;29727;47.606;19.130;2023-01-15T06:23:04;5.40;87.40
44063;DHT22;29727;47.606;19.130;2023-01-15T06:25:32;5.40;87.60
44063;DHT22;29727;47.606;19.130;2023-01-15T06:27:59;5.40;87.40
44063;DHT22;29727;47.606;19.130;2023-01-15T06:30:25;5.40;87.10
44063;DHT22;29727;47.606;19.130;2023-01-15T06:32:51;5.50;87.50
44063;DHT22;29727;47.606;19.130;2023-01-15T06:35:16;5.50;87.40
44063;DHT22;29727;47.606;19.130;2023-01-15T06:37:42;5.50;87.10
44063;DHT22;29727;47.606;19.130;2023-01-15T06:40:08;5.60;86.80
44063;DHT22;29727;47.606;19.130;2023-01-15T06:42:34;5.60;86.90
44063;DHT22;29727;47.606;19.130;2023-01-15T06:45:18;5.60;86.80
44063;DHT22;29727;47.606;19.130;2023-01-15T06:48:03;5.60;86.80
44063;DHT22;29727;47.606;19.130;2023-01-15T06:50:28;5.60;86.80
44063;DHT22;29727;47.606;19.130;2023-01-15T06:52:54;5.70;87.00
44063;DHT22;29727;47.606;19.130;2023-01-15T06:55:19;5.70;87.00
44063;DHT22;29727;47.606;19.130;2023-01-15T06:57:47;5.70;87.00
44063;DHT22;29727;47.606;19.130;2023-01-15T07:00:13;5.70;87.00
44063;DHT22;29727;47.606;19.130;2023-01-15T07:02:39;5.70;87.20
44063;DHT22;29727;47.606;19.130;2023-01-15T07:05:06;5.70;87.20
44063;DHT22;29727;47.606;19.130;2023-01-15T07:07:31;5.70;87.20
44063;DHT22;29727;47.606;19.130;2023-01-15T07:09:57;5.80;86.60
44063;DHT22;29727;47.606;19.130;2023-01-15T07:12:23;5.70;86.80
44063;DHT22;29727;47.606;19.130;2023-01-15T07:14:49;5.80;86.90
44063;DHT22;29727;47.606;19.130;2023-01-15T07:17:14;5.80;86.90
44063;DHT22;29727;47.606;19.130;2023-01-15T07:19:40;5.70;87.10
44063;DHT22;29727;47.606;19.130;2023-01-15T07:22:06;5.80;87.40
44063;DHT22;29727;47.606;19.130;2023-01-15T07:24:32;5.80;87.50
44063;DHT22;29727;47.606;19.130;2023-01-15T07:26:58;5.80;87.30
44063;DHT22;29727;47.606;19.130;2023-01-15T07:29:24;5.80;87.60
44063;DHT22;29727;47.606;19.130;2023-01-15T07:31:50;5.80;87.60
44063;DHT22;29727;47.606;19.130;2023-01-15T07:34:16;5.80;87.60
44063;DHT22;29727;47.606;19.130;2023-01-15T07:36:42;5.90;87.00
44063;DHT22;29727;47.606;19.130;2023-01-15T07:39:10;5.90;87.50
44063;DHT22;29727;47.606;19.130;2023-01-15T07:41:35;5.90;87.40
44063;DHT22;29727;47.606;19.130;2023-01-15T07:44:20;5.90;87.50
44063;DHT22;29727;47.606;19.130;2023-01-15T07:47:22;6.00;87.50
44063;DHT22;29727;47.606;19.130;2023-01-15T07:50:12;6.00;87.10
44063;DHT22;29727;47.606;19.130;2023-01-15T07:52:38;6.00;87.10
44063;DHT22;29727;47.606;19.130;2023-01-15T07:55:04;6.10;87.10
44063;DHT22;29727;47.606;19.130;2023-01-15T07:57:33;6.00;87.30
44063;DHT22;29727;47.606;19.130;2023-01-15T07:59:59;6.00;87.50
44063;DHT22;29727;47.606;19.130;2023-01-15T08:02:25;6.00;87.70
44063;DHT22;29727;47.606;19.130;2023-01-15T08:04:51;6.10;87.90
44063;DHT22;29727;47.606;19.130;2023-01-15T08:07:17;6.10;87.80
44063;DHT22;29727;47.606;19.130;2023-01-15T08:09:43;6.10;87.80
44063;DHT22;29727;47.606;19.130;2023-01-15T08:12:10;6.10;87.90
44063;DHT22;29727;47.606;19.130;2023-01-15T08:14:55;6.20;87.90
44063;DHT22;29727;47.606;19.130;2023-01-15T08:17:44;6.20;87.30
44063;DHT22;29727;47.606;19.130;2023-01-15T08:20:18;6.20;87.40
44063;DHT22;29727;47.606;19.130;2023-01-15T08:22:45;6.20;87.70
44063;DHT22;29727;47.606;19.130;2023-01-15T08:25:13;6.20;88.00
44063;DHT22;29727;47.606;19.130;2023-01-15T08:27:39;6.20;88.00
44063;DHT22;29727;47.606;19.130;2023-01-15T08:30:12;6.20;88.00
44063;DHT22;29727;47.606;19.130;2023-01-15T08:32:38;6.20;88.10
44063;DHT22;29727;47.606;19.130;2023-01-15T08:35:07;6.30;88.40
44063;DHT22;29727;47.606;19.130;2023-01-15T08:37:33;6.30;88.00
44063;DHT22;29727;47.606;19.130;2023-01-15T08:39:59;6.40;87.70
44063;DHT22;29727;47.606;19.130;2023-01-15T08:42:25;6.40;87.70
44063;DHT22;29727;47.606;19.130;2023-01-15T08:44:50;6.40;87.50
44063;DHT22;29727;47.606;19.130;2023-01-15T08:47:16;6.50;87.70
44063;DHT22;29727;47.606;19.130;2023-01-15T08:49:42;6.50;87.80
44063;DHT22;29727;47.606;19.130;2023-01-15T08:52:08;6.50;87.50
44063;DHT22;29727;47.606;19.130;2023-01-15T08:54:34;6.60;87.20
44063;DHT22;29727;47.606;19.130;2023-01-15T08:57:00;6.60;87.10
44063;DHT22;29727;47.606;19.130;2023-01-15T08:59:25;6.60;87.30
44063;DHT22;29727;47.606;19.130;2023-01-15T09:01:51;6.60;87.10
44063;DHT22;29727;47.606;19.130;2023-01-15T09:04:19;6.70;87.10
44063;DHT22;29727;47.606;19.130;2023-01-15T09:06:45;6.60;86.90
44063;DHT22;29727;47.606;19.130;2023-01-15T09:09:11;6.70;87.20
44063;DHT22;29727;47.606;19.130;2023-01-15T09:11:38;6.70;87.20
44063;DHT22;29727;47.606;19.130;2023-01-15T09:14:10;6.70;87.40
44063;DHT22;29727;47.606;19.130;2023-01-15T09:16:36;6.80;87.40
44063;DHT22;29727;47.606;19.130;2023-01-15T09:19:04;6.80;87.20
44063;DHT22;29727;47.606;19.130;2023-01-15T09:21:30;6.80;87.20
44063;DHT22;29727;47.606;19.130;2023-01-15T09:23:56;6.80;87.20
44063;DHT22;29727;47.606;19.130;2023-01-15T09:26:30;6.90;86.40
44063;DHT22;29727;47.606;19.130;2023-01-15T09:28:57;6.90;87.00
44063;DHT22;29727;47.606;19.130;2023-01-15T09:31:23;6.90;86.80
44063;DHT22;29727;47.606;19.130;2023-01-15T09:33:49;7.00;86.90
44063;DHT22;29727;47.606;19.130;2023-01-15T09:36:28;7.00;86.80
44063;DHT22;29727;47.606;19.130;2023-01-15T09:38:55;7.00;86.50
44063;DHT22;29727;47.606;19.130;2023-01-15T09:41:22;7.10;86.40
44063;DHT22;29727;47.606;19.130;2023-01-15T09:44:35;7.10;86.10
44063;DHT22;29727;47.606;19.130;2023-01-15T09:52:23;7.20;85.60
44063;DHT22;29727;47.606;19.130;2023-01-15T09:55:02;7.20;85.50
44063;DHT22;29727;47.606;19.130;2023-01-15T09:57:30;7.30;85.20
44063;DHT22;29727;47.606;19.130;2023-01-15T09:59:57;7.30;84.90
44063;DHT22;29727;47.606;19.130;2023-01-15T10:02:33;7.40;84.50
44063;DHT22;29727;47.606;19.130;2023-01-15T10:07:59;7.40;84.70
44063;DHT22;29727;47.606;19.130;2023-01-15T10:10:32;7.50;84.40
44063;DHT22;29727;47.606;19.130;2023-01-15T10:13:07;7.50;83.70
44063;DHT22;29727;47.606;19.130;2023-01-15T10:15:39;7.60;84.10
44063;DHT22;29727;47.606;19.130;2023-01-15T10:18:06;7.60;83.60
44063;DHT22;29727;47.606;19.130;2023-01-15T10:21:18;7.60;83.50
44063;DHT22;29727;47.606;19.130;2023-01-15T10:31:51;7.80;82.90
44063;DHT22;29727;47.606;19.130;2023-01-15T10:37:25;7.90;82.70
44063;DHT22;29727;47.606;19.130;2023-01-15T10:45:31;8.10;82.70
44063;DHT22;29727;47.606;19.130;2023-01-15T10:48:07;8.10;82.20
44063;DHT22;29727;47.606;19.130;2023-01-15T10:50:34;8.20;82.10
44063;DHT22;29727;47.606;19.130;2023-01-15T10:56:04;8.40;81.00
44063;DHT22;29727;47.606;19.130;2023-01-15T10:58:38;8.50;81.20
44063;DHT22;29727;47.606;19.130;2023-01-15T11:01:14;8.50;80.50
44063;DHT22;29727;47.606;19.130;2023-01-15T11:03:42;8.50;80.30
44063;DHT22;29727;47.606;19.130;2023-01-15T11:06:19;8.50;79.30
44063;DHT22;29727;47.606;19.130;2023-01-15T11:08:50;8.50;79.10
44063;DHT22;29727;47.606;19.130;2023-01-15T11:13:54;8.50;78.50
44063;DHT22;29727;47.606;19.130;2023-01-15T11:16:40;8.50;78.90
44063;DHT22;29727;47.606;19.130;2023-01-15T11:19:28;8.60;79.20
44063;DHT22;29727;47.606;19.130;2023-01-15T11:22:16;8.60;79.20
44063;DHT22;29727;47.606;19.130;2023-01-15T11:24:51;8.60;78.50
44063;DHT22;29727;47.606;19.130;2023-01-15T11:27:34;8.70;79.10
44063;DHT22;29727;47.606;19.130;2023-01-15T11:30:01;8.70;79.30
44063;DHT22;29727;47.606;19.130;2023-01-15T11:32:33;8.70;78.20
44063;DHT22;29727;47.606;19.130;2023-01-15T11:35:02;8.80;78.20
44063;DHT22;29727;47.606;19.130;2023-01-15T11:37:29;8.80;77.80
44063;DHT22;29727;47.606;19.130;2023-01-15T11:39:57;8.90;87.20
44063;DHT22;29727;47.606;19.130;2023-01-15T11:42:29;9.10;85.50
44063;DHT22;29727;47.606;19.130;2023-01-15T11:45:19;9.40;87.00
44063;DHT22;29727;47.606;19.130;2023-01-15T11:48:18;9.60;82.20
44063;DHT22;29727;47.606;19.130;2023-01-15T11:51:06;9.90;76.00
44063;DHT22;29727;47.606;19.130;2023-01-15T11:53:39;10.00;73.70
44063;DHT22;29727;47.606;19.130;2023-01-15T11:56:09;10.10;73.20
44063;DHT22;29727;47.606;19.130;2023-01-15T11:58:56;10.10;73.10
44063;DHT22;29727;47.606;19.130;2023-01-15T12:01:26;10.00;72.70
44063;DHT22;29727;47.606;19.130;2023-01-15T12:03:57;10.00;73.40
44063;DHT22;29727;47.606;19.130;2023-01-15T12:06:24;9.90;73.70
44063;DHT22;29727;47.606;19.130;2023-01-15T12:09:27;9.80;74.30
44063;DHT22;29727;47.606;19.130;2023-01-15T12:25:43;9.50;74.90
44063;DHT22;29727;47.606;19.130;2023-01-15T12:28:21;9.50;74.90
44063;DHT22;29727;47.606;19.130;2023-01-15T12:33:53;9.60;75.00
44063;DHT22;29727;47.606;19.130;2023-01-15T12:36:38;9.60;75.40
44063;DHT22;29727;47.606;19.130;2023-01-15T12:39:17;9.60;74.80
44063;DHT22;29727;47.606;19.130;2023-01-15T12:41:46;9.60;75.10
44063;DHT22;29727;47.606;19.130;2023-01-15T12:44:51;9.60;74.20
44063;DHT22;29727;47.606;19.130;2023-01-15T12:47:37;9.60;74.90
44063;DHT22;29727;47.606;19.130;2023-01-15T12:52:49;9.60;74.60
44063;DHT22;29727;47.606;19.130;2023-01-15T12:55:29;9.60;74.60
44063;DHT22;29727;47.606;19.130;2023-01-15T12:57:59;9.60;74.70
44063;DHT22;29727;47.606;19.130;2023-01-15T13:00:29;9.50;75.30
44063;DHT22;29727;47.606;19.130;2023-01-15T13:03:16;9.60;74.70
44063;DHT22;29727;47.606;19.130;2023-01-15T13:05:44;9.60;75.10
44063;DHT22;29727;47.606;19.130;2023-01-15T13:08:26;9.60;74.60
44063;DHT22;29727;47.606;19.130;2023-01-15T13:10:54;9.60;75.00
44063;DHT22;29727;47.606;19.130;2023-01-15T13:13:40;9.60;75.20
44063;DHT22;29727;47.606;19.130;2023-01-15T13:16:12;9.60;75.20
44063;DHT22;29727;47.606;19.130;2023-01-15T13:21:28;9.70;75.10
44063;DHT22;29727;47.606;19.130;2023-01-15T13:29:33;9.70;75.80
44063;DHT22;29727;47.606;19.130;2023-01-15T13:32:10;9.70;75.80
44063;DHT22;29727;47.606;19.130;2023-01-15T13:37:24;9.70;75.70
44063;DHT22;29727;47.606;19.130;2023-01-15T13:39:59;9.70;76.10
44063;DHT22;29727;47.606;19.130;2023-01-15T13:42:27;9.70;76.00
44063;DHT22;29727;47.606;19.130;2023-01-15T13:47:34;9.80;75.90
44063;DHT22;29727;47.606;19.130;2023-01-15T13:50:05;9.80;75.70
44063;DHT22;29727;47.606;19.130;2023-01-15T13:52:35;9.90;75.90
44063;DHT22;29727;47.606;19.130;2023-01-15T13:55:41;9.90;75.50
44063;DHT22;29727;47.606;19.130;2023-01-15T13:58:28;9.90;75.00
44063;DHT22;29727;47.606;19.130;2023-01-15T14:01:21;9.90;74.90
44063;DHT22;29727;47.606;19.130;2023-01-15T14:04:05;9.90;75.10
44063;DHT22;29727;47.606;19.130;2023-01-15T14:09:01;9.90;75.40
44063;DHT22;29727;47.606;19.130;2023-01-15T14:14:32;9.90;75.60
44063;DHT22;29727;47.606;19.130;2023-01-15T14:17:10;10.00;75.60
44063;DHT22;29727;47.606;19.130;2023-01-15T14:25:27;9.90;75.40
44063;DHT22;29727;47.606;19.130;2023-01-15T14:34:11;10.00;75.70
44063;DHT22;29727;47.606;19.130;2023-01-15T14:36:59;10.00;75.70
44063;DHT22;29727;47.606;19.130;2023-01-15T14:39:56;10.00;75.50
44063;DHT22;29727;47.606;19.130;2023-01-15T14:42:28;10.00;75.80
44063;DHT22;29727;47.606;19.130;2023-01-15T14:47:46;10.00;75.70
44063;DHT22;29727;47.606;19.130;2023-01-15T14:52:47;10.00;75.90
44063;DHT22;29727;47.606;19.130;2023-01-15T14:55:14;10.00;75.90
44063;DHT22;29727;47.606;19.130;2023-01-15T14:57:56;9.90;76.00
44063;DHT22;29727;47.606;19.130;2023-01-15T15:00:28;9.90;75.70
44063;DHT22;29727;47.606;19.130;2023-01-15T15:02:54;9.90;76.00
44063;DHT22;29727;47.606;19.130;2023-01-15T15:05:21;9.90;76.00
44063;DHT22;29727;47.606;19.130;2023-01-15T15:07:49;9.90;76.20
44063;DHT22;29727;47.606;19.130;2023-01-15T15:10:36;9.90;76.40
44063;DHT22;29727;47.606;19.130;2023-01-15T15:13:34;9.90;76.20
44063;DHT22;29727;47.606;19.130;2023-01-15T15:16:20;9.90;76.20
44063;DHT22;29727;47.606;19.130;2023-01-15T15:19:01;9.90;76.20
44063;DHT22;29727;47.606;19.130;2023-01-15T15:21:32;9.90;75.90
44063;DHT22;29727;47.606;19.130;2023-01-15T15:26:39;10.00;75.90
44063;DHT22;29727;47.606;19.130;2023-01-15T15:31:40;10.00;76.00
44063;DHT22;29727;47.606;19.130;2023-01-15T15:34:31;9.90;76.30
44063;DHT22;29727;47.606;19.130;2023-01-15T15:37:03;10.00;76.30
44063;DHT22;29727;47.606;19.130;2023-01-15T15:45:22;10.00;76.00
44063;DHT22;29727;47.606;19.130;2023-01-15T15:48:21;10.00;75.90
44063;DHT22;29727;47.606;19.130;2023-01-15T15:51:32;10.00;75.80
44063;DHT22;29727;47.606;19.130;2023-01-15T15:54:22;10.00;75.70
44063;DHT22;29727;47.606;19.130;2023-01-15T15:56:58;10.00;75.40
44063;DHT22;29727;47.606;19.130;2023-01-15T15:59:32;10.00;75.50
44063;DHT22;29727;47.606;19.130;2023-01-15T16:02:27;10.00;75.50
44063;DHT22;29727;47.606;19.130;2023-01-15T16:04:58;10.00;75.60
44063;DHT22;29727;47.606;19.130;2023-01-15T16:07:28;10.10;75.10
44063;DHT22;29727;47.606;19.130;2023-01-15T16:10:30;10.00;75.50
44063;DHT22;29727;47.606;19.130;2023-01-15T16:13:03;10.00;75.10
44063;DHT22;29727;47.606;19.130;2023-01-15T16:15:33;10.10;75.20
44063;DHT22;29727;47.606;19.130;2023-01-15T16:18:01;10.00;75.80
44063;DHT22;29727;47.606;19.130;2023-01-15T16:20:28;10.10;75.30
44063;DHT22;29727;47.606;19.130;2023-01-15T16:23:03;10.00;75.30
44063;DHT22;29727;47.606;19.130;2023-01-15T16:25:40;10.00;75.40
44063;DHT22;29727;47.606;19.130;2023-01-15T16:28:23;10.00;75.50
44063;DHT22;29727;47.606;19.130;2023-01-15T16:30:57;10.00;75.50
44063;DHT22;29727;47.606;19.130;2023-01-15T16:33:23;10.00;75.50
44063;DHT22;29727;47.606;19.130;2023-01-15T16:35:59;10.00;75.50
44063;DHT22;29727;47.606;19.130;2023-01-15T16:38:31;10.10;75.50
44063;DHT22;29727;47.606;19.130;2023-01-15T16:40:58;10.10;75.40
44063;DHT22;29727;47.606;19.130;2023-01-15T16:43:25;10.10;75.50
44063;DHT22;29727;47.606;19.130;2023-01-15T16:46:15;10.10;75.50
44063;DHT22;29727;47.606;19.130;2023-01-15T16:48:42;10.10;75.50
44063;DHT22;29727;47.606;19.130;2023-01-15T16:51:41;10.00;75.50
44063;DHT22;29727;47.606;19.130;2023-01-15T16:57:03;10.00;76.60
44063;DHT22;29727;47.606;19.130;2023-01-15T17:02:12;9.80;76.60
44063;DHT22;29727;47.606;19.130;2023-01-15T17:04:45;9.80;77.20
44063;DHT22;29727;47.606;19.130;2023-01-15T17:07:31;12.40;78.80
44063;DHT22;29727;47.606;19.130;2023-01-15T17:10:00;9.70;78.00
44063;DHT22;29727;47.606;19.130;2023-01-15T17:12:38;9.70;78.50
44063;DHT22;29727;47.606;19.130;2023-01-15T17:17:49;9.70;79.00
44063;DHT22;29727;47.606;19.130;2023-01-15T17:20:16;9.60;79.00
44063;DHT22;29727;47.606;19.130;2023-01-15T17:22:44;9.60;79.50
44063;DHT22;29727;47.606;19.130;2023-01-15T17:25:31;9.60;79.40
44063;DHT22;29727;47.606;19.130;2023-01-15T17:27:58;9.60;79.50
44063;DHT22;29727;47.606;19.130;2023-01-15T17:30:25;9.60;79.50
44063;DHT22;29727;47.606;19.130;2023-01-15T17:33:03;9.60;79.60
44063;DHT22;29727;47.606;19.130;2023-01-15T17:35:31;9.60;79.80
44063;DHT22;29727;47.606;19.130;2023-01-15T17:37:57;9.60;79.70
44063;DHT22;29727;47.606;19.130;2023-01-15T17:40:22;9.60;79.70
44063;DHT22;29727;47.606;19.130;2023-01-15T17:42:48;9.60;79.80
44063;DHT22;29727;47.606;19.130;2023-01-15T17:45:26;9.60;80.00
44063;DHT22;29727;47.606;19.130;2023-01-15T17:47:52;9.70;80.10
44063;DHT22;29727;47.606;19.130;2023-01-15T17:50:18;9.70;80.10
44063;DHT22;29727;47.606;19.130;2023-01-15T17:52:48;9.70;80.00
44063;DHT22;29727;47.606;19.130;2023-01-15T17:55:16;9.70;80.20
44063;DHT22;29727;47.606;19.130;2023-01-15T17:58:00;9.70;80.20
44063;DHT22;29727;47.606;19.130;2023-01-15T18:00:45;9.60;80.20